createdAt,value
2016-12-25T00:00:28.091Z,1018.27
2016-12-25T00:01:39.276Z,1018.26
2016-12-25T00:02:50.308Z,1018.28
2016-12-25T00:04:01.497Z,1018.26
2016-12-25T00:05:12.478Z,1018.18
2016-12-25T00:06:23.465Z,1018.14
2016-12-25T00:07:34.457Z,1018.13
2016-12-25T00:08:45.893Z,1018.2
2016-12-25T00:09:57.283Z,1018.14
2016-12-25T00:11:08.267Z,1018.23
2016-12-25T00:12:19.252Z,1018.23
2016-12-25T00:13:30.439Z,1018.32
2016-12-25T00:14:41.475Z,1018.26
2016-12-25T00:15:52.459Z,1018.22
2016-12-25T00:17:03.443Z,1018.17
2016-12-25T00:18:14.430Z,1018.21
2016-12-25T00:19:25.626Z,1018.23
2016-12-25T00:20:36.663Z,1018.28
2016-12-25T00:21:47.652Z,1018.29
2016-12-25T00:22:58.656Z,1018.33
2016-12-25T00:24:09.841Z,1018.3
2016-12-25T00:25:20.824Z,1018.32
2016-12-25T00:26:31.851Z,1018.28
2016-12-25T00:27:42.858Z,1018.24
2016-12-25T00:28:53.843Z,1018.24
2016-12-25T00:30:04.831Z,1018.29
2016-12-25T00:31:15.811Z,1018.17
2016-12-25T00:32:26.846Z,1018.29
2016-12-25T00:33:37.836Z,1018.29
2016-12-25T00:34:48.818Z,1018.31
2016-12-25T00:35:59.803Z,1018.36
2016-12-25T00:37:10.779Z,1018.4
2016-12-25T00:38:21.820Z,1018.3
2016-12-25T00:39:32.810Z,1018.29
2016-12-25T00:40:43.827Z,1018.25
2016-12-25T00:41:54.819Z,1018.25
2016-12-25T00:43:05.808Z,1018.21
2016-12-25T00:44:17.043Z,1018.24
2016-12-25T00:45:28.026Z,1018.25
2016-12-25T00:46:39.039Z,1018.28
2016-12-25T00:47:50.225Z,1018.26
2016-12-25T00:49:01.210Z,1018.23
2016-12-25T00:50:12.254Z,1018.22
2016-12-25T00:51:23.234Z,1018.19
2016-12-25T00:52:34.218Z,1018.23
2016-12-25T00:53:45.205Z,1018.22
2016-12-25T00:54:56.191Z,1018.25
2016-12-25T00:56:07.224Z,1018.23
2016-12-25T00:57:18.207Z,1018.3
2016-12-25T00:58:29.188Z,1018.29
2016-12-25T00:59:40.375Z,1018.28
2016-12-25T01:00:51.362Z,1018.18
2016-12-25T01:02:02.408Z,1018.28
2016-12-25T01:03:13.392Z,1018.26
2016-12-25T01:04:24.374Z,1018.29
2016-12-25T01:05:35.370Z,1018.33
2016-12-25T01:06:46.393Z,1018.32
2016-12-25T01:07:57.423Z,1018.22
2016-12-25T01:09:08.445Z,1018.29
2016-12-25T01:10:19.448Z,1018.28
2016-12-25T01:11:30.430Z,1018.32
2016-12-25T01:12:41.416Z,1018.29
2016-12-25T01:13:52.453Z,1018.32
2016-12-25T01:15:03.446Z,1018.28
2016-12-25T01:16:14.433Z,1018.42
2016-12-25T01:17:25.420Z,1018.36
2016-12-25T01:18:36.609Z,1018.33
2016-12-25T01:19:47.642Z,1018.35
2016-12-25T01:20:58.627Z,1018.36
2016-12-25T01:22:09.614Z,1018.29
2016-12-25T01:23:20.607Z,1018.29
2016-12-25T01:24:31.598Z,1018.28
2016-12-25T01:25:42.577Z,1018.18
2016-12-25T01:26:53.560Z,1018.22
2016-12-25T01:28:04.551Z,1018.16
2016-12-25T01:29:15.543Z,1018.2
2016-12-25T01:30:26.531Z,1018.17
2016-12-25T01:31:37.522Z,1018.18
2016-12-25T01:32:48.512Z,1018.16
2016-12-25T01:33:59.506Z,1018.2
2016-12-25T01:35:10.492Z,1018.19
2016-12-25T01:36:21.677Z,1018.21
2016-12-25T01:37:32.861Z,1018.14
2016-12-25T01:38:43.849Z,1018.19
2016-12-25T01:39:54.836Z,1018.08
2016-12-25T01:41:05.871Z,1018.08
2016-12-25T01:42:17.056Z,1018.07
2016-12-25T01:43:28.043Z,1018.09
2016-12-25T01:44:39.047Z,1018.07
2016-12-25T01:45:50.061Z,1018.11
2016-12-25T01:47:01.043Z,1018.08
2016-12-25T01:48:12.232Z,1018.04
2016-12-25T01:49:23.223Z,1018.11
2016-12-25T01:50:34.210Z,1018.18
2016-12-25T01:51:45.228Z,1018.15
2016-12-25T01:52:56.216Z,1018.09
2016-12-25T01:54:07.204Z,1018.04
2016-12-25T01:55:18.196Z,1018.13
2016-12-25T01:56:29.181Z,1018.08
2016-12-25T01:57:40.162Z,1018.14
2016-12-25T01:58:51.151Z,1018.06
2016-12-25T02:00:02.587Z,1018.12
2016-12-25T02:01:13.578Z,1018.16
2016-12-25T02:02:24.569Z,1018.11
2016-12-25T02:03:35.750Z,1018.14
2016-12-25T02:04:46.748Z,1018.1
2016-12-25T02:05:57.734Z,1018.17
2016-12-25T02:07:08.718Z,1018.08
2016-12-25T02:08:19.900Z,1018.04
2016-12-25T02:09:30.886Z,1018.1
2016-12-25T02:10:41.875Z,1018.02
2016-12-25T02:11:52.854Z,1017.96
2016-12-25T02:13:04.043Z,1018.05
2016-12-25T02:14:15.042Z,1018.06
2016-12-25T02:15:26.228Z,1018.01
2016-12-25T02:16:37.410Z,1018
2016-12-25T02:17:48.390Z,1017.95
2016-12-25T02:18:59.379Z,1017.96
2016-12-25T02:20:10.364Z,1017.99
2016-12-25T02:21:21.354Z,1017.98
2016-12-25T02:22:32.342Z,1017.93
2016-12-25T02:23:43.322Z,1017.97
2016-12-25T02:24:54.311Z,1017.88
2016-12-25T02:26:05.300Z,1017.83
2016-12-25T02:27:16.288Z,1017.75
2016-12-25T02:28:27.272Z,1017.68
2016-12-25T02:29:38.257Z,1017.74
2016-12-25T02:30:49.238Z,1017.7
2016-12-25T02:32:00.428Z,1017.68
2016-12-25T02:33:11.616Z,1017.67
2016-12-25T02:34:22.601Z,1017.64
2016-12-25T02:35:33.586Z,1017.57
2016-12-25T02:36:44.578Z,1017.5
2016-12-25T02:37:55.565Z,1017.47
2016-12-25T02:39:06.552Z,1017.57
2016-12-25T02:40:17.544Z,1017.58
2016-12-25T02:41:28.534Z,1017.58
2016-12-25T02:42:39.518Z,1017.65
2016-12-25T02:43:50.503Z,1017.65
2016-12-25T02:45:01.492Z,1017.67
2016-12-25T02:46:12.479Z,1017.62
2016-12-25T02:47:23.471Z,1017.67
2016-12-25T02:48:34.455Z,1017.71
2016-12-25T02:49:45.496Z,1017.68
2016-12-25T02:50:56.483Z,1017.67
2016-12-25T02:52:07.694Z,1017.79
2016-12-25T02:53:18.678Z,1017.87
2016-12-25T02:54:29.693Z,1017.71
2016-12-25T02:55:40.714Z,1017.72
2016-12-25T02:56:51.694Z,1017.68
2016-12-25T02:58:02.683Z,1017.66
2016-12-25T02:59:13.869Z,1017.66
2016-12-25T03:00:24.902Z,1017.65
2016-12-25T03:01:35.891Z,1017.56
2016-12-25T03:02:46.886Z,1017.56
2016-12-25T03:03:57.872Z,1017.52
2016-12-25T03:05:09.060Z,1017.59
2016-12-25T03:06:20.045Z,1017.49
2016-12-25T03:07:31.245Z,1017.46
2016-12-25T03:08:42.223Z,1017.4
2016-12-25T03:09:53.212Z,1017.49
2016-12-25T03:11:04.206Z,1017.4
2016-12-25T03:12:15.604Z,1017.41
2016-12-25T03:13:26.582Z,1017.38
2016-12-25T03:14:37.794Z,1017.32
2016-12-25T03:15:48.777Z,1017.33
2016-12-25T03:16:59.763Z,1017.31
2016-12-25T03:18:10.753Z,1017.32
2016-12-25T03:19:21.740Z,1017.3
2016-12-25T03:20:32.730Z,1017.36
2016-12-25T03:21:43.720Z,1017.35
2016-12-25T03:22:54.907Z,1017.41
2016-12-25T03:24:05.891Z,1017.35
2016-12-25T03:25:16.877Z,1017.37
2016-12-25T03:26:28.066Z,1017.44
2016-12-25T03:27:39.253Z,1017.41
2016-12-25T03:28:50.233Z,1017.44
2016-12-25T03:30:01.427Z,1017.31
2016-12-25T03:31:12.610Z,1017.35
2016-12-25T03:32:23.615Z,1017.31
2016-12-25T03:33:34.598Z,1017.31
2016-12-25T03:34:45.582Z,1017.29
2016-12-25T03:35:56.565Z,1017.32
2016-12-25T03:37:07.553Z,1017.31
2016-12-25T03:38:18.739Z,1017.27
2016-12-25T03:39:29.931Z,1017.26
2016-12-25T03:40:40.921Z,1017.24
2016-12-25T03:41:51.937Z,1017.25
2016-12-25T03:43:02.918Z,1017.21
2016-12-25T03:44:14.110Z,1017.28
2016-12-25T03:45:25.099Z,1017.18
2016-12-25T03:46:36.096Z,1017.15
2016-12-25T03:47:47.283Z,1017.12
2016-12-25T03:48:58.263Z,1017.16
2016-12-25T03:50:09.704Z,1017.15
2016-12-25T03:51:20.695Z,1017.11
2016-12-25T03:52:31.880Z,1017.1
2016-12-25T03:53:42.870Z,1017.07
2016-12-25T03:54:53.857Z,1016.94
2016-12-25T03:56:04.919Z,1016.96
2016-12-25T03:57:15.905Z,1016.92
2016-12-25T03:58:26.892Z,1016.9
2016-12-25T03:59:37.876Z,1016.86
2016-12-25T04:00:49.061Z,1016.89
2016-12-25T04:02:00.092Z,1016.89
2016-12-25T04:03:11.082Z,1016.87
2016-12-25T04:04:22.067Z,1016.91
2016-12-25T04:05:33.049Z,1016.96
2016-12-25T04:06:44.037Z,1017
2016-12-25T04:07:55.074Z,1017.01
2016-12-25T04:09:06.062Z,1016.86
2016-12-25T04:10:17.057Z,1016.97
2016-12-25T04:11:28.246Z,1016.93
2016-12-25T04:12:39.240Z,1017
2016-12-25T04:13:50.481Z,1017.01
2016-12-25T04:15:01.477Z,1017.07
2016-12-25T04:16:12.462Z,1017
2016-12-25T04:17:23.642Z,1017.01
2016-12-25T04:18:34.632Z,1017.04
2016-12-25T04:19:45.665Z,1017.12
2016-12-25T04:20:56.653Z,1017.09
2016-12-25T04:22:08.037Z,1017.06
2016-12-25T04:23:19.057Z,1016.92
2016-12-25T04:24:30.043Z,1017
2016-12-25T04:25:41.029Z,1016.96
2016-12-25T04:26:52.018Z,1016.96
2016-12-25T04:28:03.001Z,1016.89
2016-12-25T04:29:13.981Z,1016.92
2016-12-25T04:30:24.966Z,1016.9
2016-12-25T04:31:36.365Z,1016.95
2016-12-25T04:32:47.343Z,1017
2016-12-25T04:33:58.336Z,1016.91
2016-12-25T04:35:09.322Z,1016.93
2016-12-25T04:36:20.512Z,1017
2016-12-25T04:37:31.498Z,1016.97
2016-12-25T04:38:42.488Z,1016.99
2016-12-25T04:39:53.474Z,1017.02
2016-12-25T04:41:04.663Z,1017
2016-12-25T04:42:15.843Z,1017.01
2016-12-25T04:43:26.828Z,1016.99
2016-12-25T04:44:37.819Z,1017
2016-12-25T04:45:48.805Z,1016.99
2016-12-25T04:46:59.819Z,1017.03
2016-12-25T04:48:10.806Z,1017.02
2016-12-25T04:49:21.791Z,1017.05
2016-12-25T04:50:32.779Z,1017.04
2016-12-25T04:51:43.970Z,1017.04
2016-12-25T04:52:54.956Z,1017.05
2016-12-25T04:54:05.937Z,1017.01
2016-12-25T04:55:16.925Z,1017.04
2016-12-25T04:56:27.913Z,1017.03
2016-12-25T04:57:38.904Z,1017.01
2016-12-25T04:58:49.885Z,1016.9
2016-12-25T05:00:00.883Z,1016.9
2016-12-25T05:01:11.872Z,1016.96
2016-12-25T05:02:22.862Z,1017
2016-12-25T05:03:33.841Z,1016.96
2016-12-25T05:04:45.035Z,1016.94
2016-12-25T05:05:56.219Z,1016.96
2016-12-25T05:07:07.205Z,1017.01
2016-12-25T05:08:18.188Z,1016.97
2016-12-25T05:09:29.177Z,1016.94
2016-12-25T05:10:40.373Z,1016.86
2016-12-25T05:11:51.363Z,1016.87
2016-12-25T05:13:02.551Z,1016.9
2016-12-25T05:14:13.733Z,1016.85
2016-12-25T05:15:24.721Z,1016.92
2016-12-25T05:16:35.708Z,1016.81
2016-12-25T05:17:46.692Z,1016.82
2016-12-25T05:18:57.672Z,1016.82
2016-12-25T05:20:08.661Z,1016.79
2016-12-25T05:21:19.647Z,1016.76
2016-12-25T05:22:30.834Z,1016.69
2016-12-25T05:23:41.828Z,1016.78
2016-12-25T05:24:52.847Z,1016.71
2016-12-25T05:26:03.891Z,1016.75
2016-12-25T05:27:15.070Z,1016.84
2016-12-25T05:28:26.247Z,1016.74
2016-12-25T05:29:37.232Z,1016.77
2016-12-25T05:30:48.421Z,1016.66
2016-12-25T05:31:59.413Z,1016.59
2016-12-25T05:33:10.404Z,1016.64
2016-12-25T05:34:21.601Z,1016.57
2016-12-25T05:35:32.583Z,1016.63
2016-12-25T05:36:43.567Z,1016.57
2016-12-25T05:37:54.753Z,1016.6
2016-12-25T05:39:05.757Z,1016.72
2016-12-25T05:40:16.742Z,1016.69
2016-12-25T05:41:27.929Z,1016.77
2016-12-25T05:42:38.914Z,1016.73
2016-12-25T05:43:49.901Z,1016.8
2016-12-25T05:45:00.893Z,1016.88
2016-12-25T05:46:11.890Z,1016.75
2016-12-25T05:47:23.079Z,1016.67
2016-12-25T05:48:34.065Z,1016.65
2016-12-25T05:49:45.054Z,1016.56
2016-12-25T05:50:56.036Z,1016.63
2016-12-25T05:52:07.223Z,1016.64
2016-12-25T05:53:18.213Z,1016.58
2016-12-25T05:54:29.199Z,1016.56
2016-12-25T05:55:40.186Z,1016.6
2016-12-25T05:56:51.176Z,1016.51
2016-12-25T05:58:02.572Z,1016.62
2016-12-25T05:59:13.552Z,1016.55
2016-12-25T06:00:24.744Z,1016.62
2016-12-25T06:01:35.934Z,1016.61
2016-12-25T06:02:46.921Z,1016.62
2016-12-25T06:03:57.906Z,1016.55
2016-12-25T06:05:08.888Z,1016.58
2016-12-25T06:06:19.872Z,1016.56
2016-12-25T06:07:30.863Z,1016.55
2016-12-25T06:08:41.848Z,1016.45
2016-12-25T06:09:52.858Z,1016.45
2016-12-25T06:11:03.899Z,1016.47
2016-12-25T06:12:15.095Z,1016.43
2016-12-25T06:13:26.080Z,1016.43
2016-12-25T06:14:37.281Z,1016.41
2016-12-25T06:15:48.263Z,1016.45
2016-12-25T06:16:59.247Z,1016.38
2016-12-25T06:18:10.440Z,1016.3
2016-12-25T06:19:21.429Z,1016.32
2016-12-25T06:20:32.501Z,1016.26
2016-12-25T06:21:43.490Z,1016.27
2016-12-25T06:22:54.474Z,1016.31
2016-12-25T06:24:05.462Z,1016.27
2016-12-25T06:25:16.501Z,1016.15
2016-12-25T06:26:27.495Z,1016.18
2016-12-25T06:27:38.486Z,1016.14
2016-12-25T06:28:49.471Z,1016.08
2016-12-25T06:30:00.468Z,1015.96
2016-12-25T06:31:11.506Z,1015.81
2016-12-25T06:32:22.698Z,1015.78
2016-12-25T06:33:33.687Z,1015.71
2016-12-25T06:34:45.278Z,1015.77
2016-12-25T06:35:56.270Z,1015.66
2016-12-25T06:37:07.301Z,1015.75
2016-12-25T06:38:18.289Z,1015.72
2016-12-25T06:39:29.278Z,1015.62
2016-12-25T06:40:40.260Z,1015.57
2016-12-25T06:41:51.246Z,1015.6
2016-12-25T06:43:02.282Z,1015.58
2016-12-25T06:44:13.475Z,1015.64
2016-12-25T06:45:24.463Z,1015.68
2016-12-25T06:46:35.447Z,1015.7
2016-12-25T06:47:46.436Z,1015.66
2016-12-25T06:48:57.473Z,1015.66
2016-12-25T06:50:08.457Z,1015.54
2016-12-25T06:51:19.445Z,1015.77
2016-12-25T06:52:30.429Z,1015.75
2016-12-25T06:53:41.407Z,1015.74
2016-12-25T06:54:52.446Z,1015.78
2016-12-25T06:56:03.431Z,1015.81
2016-12-25T06:57:14.422Z,1015.81
2016-12-25T06:58:25.409Z,1015.86
2016-12-25T06:59:36.625Z,1015.95
2016-12-25T07:00:47.664Z,1015.92
2016-12-25T07:01:58.653Z,1015.98
2016-12-25T07:03:09.645Z,1015.95
2016-12-25T07:04:20.638Z,1016.02
2016-12-25T07:05:31.644Z,1016.05
2016-12-25T07:06:42.884Z,1016.13
2016-12-25T07:07:53.871Z,1016.21
2016-12-25T07:09:04.858Z,1016.22
2016-12-25T07:10:15.838Z,1016.24
2016-12-25T07:11:26.820Z,1016.22
2016-12-25T07:12:37.865Z,1016.27
2016-12-25T07:13:48.844Z,1016.34
2016-12-25T07:15:00.041Z,1016.43
2016-12-25T07:16:11.032Z,1016.43
2016-12-25T07:17:22.242Z,1016.58
2016-12-25T07:18:33.281Z,1016.57
2016-12-25T07:19:44.477Z,1016.62
2016-12-25T07:20:55.463Z,1016.68
2016-12-25T07:22:06.453Z,1016.6
2016-12-25T07:23:17.635Z,1016.64
2016-12-25T07:24:28.690Z,1016.64
2016-12-25T07:25:39.871Z,1016.63
2016-12-25T07:26:50.852Z,1016.67
2016-12-25T07:28:01.834Z,1016.66
2016-12-25T07:29:13.021Z,1016.68
2016-12-25T07:30:24.057Z,1016.67
2016-12-25T07:31:35.037Z,1016.7
2016-12-25T07:32:46.026Z,1016.72
2016-12-25T07:33:57.032Z,1016.73
2016-12-25T07:35:08.018Z,1016.75
2016-12-25T07:36:19.056Z,1016.77
2016-12-25T07:37:30.039Z,1016.78
2016-12-25T07:38:41.034Z,1016.79
2016-12-25T07:39:52.023Z,1016.77
2016-12-25T07:41:03.010Z,1016.78
2016-12-25T07:42:14.049Z,1016.77
2016-12-25T07:43:25.029Z,1016.73
2016-12-25T07:44:36.016Z,1016.68
2016-12-25T07:45:47.028Z,1016.69
2016-12-25T07:46:58.012Z,1016.67
2016-12-25T07:48:09.250Z,1016.63
2016-12-25T07:49:20.435Z,1016.64
2016-12-25T07:50:31.628Z,1016.61
2016-12-25T07:51:42.611Z,1016.62
2016-12-25T07:52:53.593Z,1016.54
2016-12-25T07:54:04.660Z,1016.59
2016-12-25T07:55:15.643Z,1016.61
2016-12-25T07:56:26.626Z,1016.6
2016-12-25T07:57:37.611Z,1016.62
2016-12-25T07:58:48.803Z,1016.61
2016-12-25T07:59:59.847Z,1016.69
2016-12-25T08:01:11.037Z,1016.68
2016-12-25T08:02:22.020Z,1016.75
2016-12-25T08:03:33.013Z,1016.71
2016-12-25T08:04:44.000Z,1016.72
2016-12-25T08:05:55.044Z,1016.75
2016-12-25T08:07:06.023Z,1016.65
2016-12-25T08:08:17.035Z,1016.7
2016-12-25T08:09:28.630Z,1016.7
2016-12-25T08:10:39.615Z,1016.69
2016-12-25T08:11:50.650Z,1016.68
2016-12-25T08:13:01.833Z,1016.71
2016-12-25T08:14:12.818Z,1016.66
2016-12-25T08:15:23.800Z,1016.74
2016-12-25T08:16:34.998Z,1016.73
2016-12-25T08:17:46.034Z,1016.7
2016-12-25T08:18:57.019Z,1016.78
2016-12-25T08:20:08.216Z,1016.71
2016-12-25T08:21:19.395Z,1016.7
2016-12-25T08:22:30.383Z,1016.68
2016-12-25T08:23:41.416Z,1016.74
2016-12-25T08:24:52.395Z,1016.74
2016-12-25T08:26:03.409Z,1016.78
2016-12-25T08:27:14.390Z,1016.8
2016-12-25T08:28:25.572Z,1016.79
2016-12-25T08:29:36.614Z,1016.85
2016-12-25T08:30:47.600Z,1016.82
2016-12-25T08:31:58.583Z,1016.86
2016-12-25T08:33:09.563Z,1016.79
2016-12-25T08:34:20.546Z,1016.78
2016-12-25T08:35:31.531Z,1016.83
2016-12-25T08:36:42.514Z,1016.71
2016-12-25T08:37:53.500Z,1016.77
2016-12-25T08:39:04.487Z,1016.78
2016-12-25T08:40:15.522Z,1016.82
2016-12-25T08:41:26.511Z,1016.78
2016-12-25T08:42:37.496Z,1016.74
2016-12-25T08:43:48.485Z,1016.73
2016-12-25T08:44:59.468Z,1016.76
2016-12-25T08:46:10.456Z,1016.73
2016-12-25T08:47:21.441Z,1016.77
2016-12-25T08:48:32.423Z,1016.81
2016-12-25T08:49:43.409Z,1016.78
2016-12-25T08:50:54.395Z,1016.79
2016-12-25T08:52:05.376Z,1016.84
2016-12-25T08:53:16.390Z,1016.86
2016-12-25T08:54:27.378Z,1016.85
2016-12-25T08:55:38.372Z,1016.85
2016-12-25T08:56:49.353Z,1016.86
2016-12-25T08:58:00.339Z,1016.87
2016-12-25T08:59:11.528Z,1016.89
2016-12-25T09:00:22.507Z,1016.87
2016-12-25T09:01:33.693Z,1016.95
2016-12-25T09:02:44.678Z,1016.87
2016-12-25T09:03:55.866Z,1016.9
2016-12-25T09:05:06.907Z,1016.92
2016-12-25T09:06:17.896Z,1017.01
2016-12-25T09:07:28.885Z,1017
2016-12-25T09:08:39.872Z,1017.07
2016-12-25T09:09:50.862Z,1017.03
2016-12-25T09:11:01.847Z,1017.12
2016-12-25T09:12:12.831Z,1017.14
2016-12-25T09:13:23.809Z,1017.04
2016-12-25T09:14:35.003Z,1017.07
2016-12-25T09:15:46.232Z,1017.14
2016-12-25T09:16:57.213Z,1017.06
2016-12-25T09:18:08.204Z,1017.07
2016-12-25T09:19:19.203Z,1017.11
2016-12-25T09:20:30.384Z,1017.13
2016-12-25T09:21:41.367Z,1017.11
2016-12-25T09:22:52.381Z,1017.12
2016-12-25T09:24:03.371Z,1017.16
2016-12-25T09:25:14.357Z,1017.11
2016-12-25T09:26:25.343Z,1017.03
2016-12-25T09:27:36.539Z,1017.15
2016-12-25T09:28:47.725Z,1017.23
2016-12-25T09:29:58.705Z,1017.27
2016-12-25T09:31:09.699Z,1017.27
2016-12-25T09:32:20.887Z,1017.26
2016-12-25T09:33:31.880Z,1017.23
2016-12-25T09:34:43.092Z,1017.28
2016-12-25T09:35:54.076Z,1017.28
2016-12-25T09:37:05.069Z,1017.3
2016-12-25T09:38:16.260Z,1017.31
2016-12-25T09:39:27.245Z,1017.25
2016-12-25T09:40:38.223Z,1017.26
2016-12-25T09:41:49.205Z,1017.34
2016-12-25T09:43:00.197Z,1017.37
2016-12-25T09:44:11.180Z,1017.38
2016-12-25T09:45:22.181Z,1017.35
2016-12-25T09:46:33.166Z,1017.34
2016-12-25T09:47:44.155Z,1017.34
2016-12-25T09:48:55.137Z,1017.31
2016-12-25T09:50:06.124Z,1017.37
2016-12-25T09:51:17.108Z,1017.4
2016-12-25T09:52:28.094Z,1017.36
2016-12-25T09:53:39.081Z,1017.4
2016-12-25T09:54:50.065Z,1017.4
2016-12-25T09:56:01.051Z,1017.38
2016-12-25T09:57:12.038Z,1017.34
2016-12-25T09:58:23.021Z,1017.37
2016-12-25T09:59:34.002Z,1017.43
2016-12-25T10:00:44.985Z,1017.37
2016-12-25T10:01:56.172Z,1017.42
2016-12-25T10:03:07.355Z,1017.43
2016-12-25T10:04:18.332Z,1017.45
2016-12-25T10:05:29.320Z,1017.45
2016-12-25T10:06:40.370Z,1017.37
2016-12-25T10:07:51.557Z,1017.31
2016-12-25T10:09:02.540Z,1017.36
2016-12-25T10:10:13.724Z,1017.31
2016-12-25T10:11:24.703Z,1017.3
2016-12-25T10:12:35.688Z,1017.35
2016-12-25T10:13:46.881Z,1017.36
2016-12-25T10:14:57.868Z,1017.38
2016-12-25T10:16:08.855Z,1017.35
2016-12-25T10:17:19.839Z,1017.31
2016-12-25T10:18:30.829Z,1017.38
2016-12-25T10:19:41.816Z,1017.29
2016-12-25T10:20:52.797Z,1017.29
2016-12-25T10:22:03.786Z,1017.35
2016-12-25T10:23:14.784Z,1017.27
2016-12-25T10:24:25.769Z,1017.29
2016-12-25T10:25:36.758Z,1017.28
2016-12-25T10:26:47.747Z,1017.28
2016-12-25T10:27:58.726Z,1017.29
2016-12-25T10:29:09.921Z,1017.2
2016-12-25T10:30:20.904Z,1017.24
2016-12-25T10:31:31.894Z,1017.27
2016-12-25T10:32:42.880Z,1017.31
2016-12-25T10:33:53.868Z,1017.29
2016-12-25T10:35:05.058Z,1017.31
2016-12-25T10:36:16.048Z,1017.29
2016-12-25T10:37:27.035Z,1017.3
2016-12-25T10:38:38.015Z,1017.28
2016-12-25T10:39:49.001Z,1017.28
2016-12-25T10:41:00.195Z,1017.29
2016-12-25T10:42:11.187Z,1017.2
2016-12-25T10:43:22.178Z,1017.27
2016-12-25T10:44:33.165Z,1017.23
2016-12-25T10:45:44.206Z,1017.21
2016-12-25T10:46:55.196Z,1017.2
2016-12-25T10:48:06.191Z,1017.25
2016-12-25T10:49:17.181Z,1017.17
2016-12-25T10:50:28.168Z,1017.18
2016-12-25T10:51:39.361Z,1017.19
2016-12-25T10:52:50.549Z,1017.22
2016-12-25T10:54:01.528Z,1017.25
2016-12-25T10:55:12.516Z,1017.22
2016-12-25T10:56:23.711Z,1017.17
2016-12-25T10:57:34.694Z,1017.18
2016-12-25T10:58:45.889Z,1017.27
2016-12-25T10:59:57.086Z,1017.25
2016-12-25T11:01:08.126Z,1017.26
2016-12-25T11:02:19.115Z,1017.21
2016-12-25T11:03:30.097Z,1017.24
2016-12-25T11:04:41.118Z,1017.19
2016-12-25T11:05:52.103Z,1017.2
2016-12-25T11:07:03.090Z,1017.2
2016-12-25T11:08:14.086Z,1017.25
2016-12-25T11:09:25.100Z,1017.21
2016-12-25T11:10:36.081Z,1017.23
2016-12-25T11:11:47.061Z,1017.24
2016-12-25T11:12:58.089Z,1017.26
2016-12-25T11:14:09.277Z,1017.19
2016-12-25T11:15:20.269Z,1017.23
2016-12-25T11:16:31.267Z,1017.24
2016-12-25T11:17:42.260Z,1017.18
2016-12-25T11:18:53.243Z,1017.14
2016-12-25T11:20:04.227Z,1017.15
2016-12-25T11:21:15.236Z,1017.12
2016-12-25T11:22:26.221Z,1017.19
2016-12-25T11:23:37.407Z,1017.19
2016-12-25T11:24:48.399Z,1017.14
2016-12-25T11:25:59.387Z,1017.12
2016-12-25T11:27:10.371Z,1017.08
2016-12-25T11:28:21.353Z,1017.12
2016-12-25T11:29:32.345Z,1017.07
2016-12-25T11:30:43.735Z,1017.15
2016-12-25T11:31:54.921Z,1017.15
2016-12-25T11:33:05.926Z,1017.09
2016-12-25T11:34:16.912Z,1017.13
2016-12-25T11:35:27.904Z,1017.1
2016-12-25T11:36:38.882Z,1017.11
2016-12-25T11:37:49.870Z,1017.04
2016-12-25T11:39:00.858Z,1017.08
2016-12-25T11:40:11.843Z,1017.08
2016-12-25T11:41:23.036Z,1017.09
2016-12-25T11:42:34.022Z,1017.06
2016-12-25T11:43:45.010Z,1017.07
2016-12-25T11:44:56.000Z,1017.08
2016-12-25T11:46:06.980Z,1017.02
2016-12-25T11:47:17.972Z,1017.09
2016-12-25T11:48:28.959Z,1017.15
2016-12-25T11:49:39.951Z,1017.15
2016-12-25T11:50:50.937Z,1017.12
2016-12-25T11:52:01.933Z,1017.13
2016-12-25T11:53:12.923Z,1017.12
2016-12-25T11:54:23.908Z,1017.16
2016-12-25T11:55:34.936Z,1017.1
2016-12-25T11:56:46.123Z,1017.17
2016-12-25T11:57:57.114Z,1017.15
2016-12-25T11:59:08.093Z,1017.11
2016-12-25T12:00:19.326Z,1017.1
2016-12-25T12:01:30.516Z,1017.11
2016-12-25T12:02:41.499Z,1017.08
2016-12-25T12:03:52.484Z,1017.11
2016-12-25T12:05:03.495Z,1017.1
2016-12-25T12:06:14.482Z,1017.11
2016-12-25T12:07:25.469Z,1017.1
2016-12-25T12:08:36.460Z,1017.05
2016-12-25T12:09:47.651Z,1016.95
2016-12-25T12:10:58.640Z,1017.07
2016-12-25T12:12:09.623Z,1017.01
2016-12-25T12:13:20.806Z,1017.04
2016-12-25T12:14:31.803Z,1017.07
2016-12-25T12:15:42.790Z,1017.03
2016-12-25T12:16:53.801Z,1017.03
2016-12-25T12:18:04.783Z,1017.04
2016-12-25T12:19:15.972Z,1017.06
2016-12-25T12:20:26.956Z,1017.02
2016-12-25T12:21:37.945Z,1017.04
2016-12-25T12:22:48.929Z,1016.99
2016-12-25T12:23:59.918Z,1017
2016-12-25T12:25:10.952Z,1016.95
2016-12-25T12:26:21.940Z,1016.98
2016-12-25T12:27:32.932Z,1016.93
2016-12-25T12:28:43.911Z,1016.92
2016-12-25T12:29:54.892Z,1016.88
2016-12-25T12:31:05.885Z,1016.93
2016-12-25T12:32:16.872Z,1016.91
2016-12-25T12:33:27.858Z,1016.88
2016-12-25T12:34:38.858Z,1016.9
2016-12-25T12:35:49.838Z,1016.95
2016-12-25T12:37:00.833Z,1016.96
2016-12-25T12:38:11.824Z,1016.88
2016-12-25T12:39:23.016Z,1016.89
2016-12-25T12:40:34.004Z,1016.86
2016-12-25T12:41:45.000Z,1016.87
2016-12-25T12:42:55.989Z,1016.81
2016-12-25T12:44:06.984Z,1016.88
2016-12-25T12:45:17.975Z,1016.86
2016-12-25T12:46:28.956Z,1016.86
2016-12-25T12:47:39.934Z,1016.89
2016-12-25T12:48:50.947Z,1016.81
2016-12-25T12:50:01.935Z,1016.87
2016-12-25T12:51:12.915Z,1016.93
2016-12-25T12:52:23.903Z,1016.93
2016-12-25T12:53:35.092Z,1016.92
2016-12-25T12:54:46.072Z,1016.86
2016-12-25T12:55:57.260Z,1016.82
2016-12-25T12:57:08.250Z,1016.82
2016-12-25T12:58:19.447Z,1016.81
2016-12-25T12:59:30.633Z,1016.87
2016-12-25T13:00:41.621Z,1016.81
2016-12-25T13:01:52.610Z,1016.81
2016-12-25T13:03:03.599Z,1016.82
2016-12-25T13:04:14.589Z,1016.8
2016-12-25T13:05:25.572Z,1016.8
2016-12-25T13:06:36.565Z,1016.84
2016-12-25T13:07:47.546Z,1016.84
2016-12-25T13:08:58.542Z,1016.86
2016-12-25T13:10:09.531Z,1016.97
2016-12-25T13:11:20.514Z,1016.93
2016-12-25T13:12:31.501Z,1016.93
2016-12-25T13:13:42.485Z,1016.95
2016-12-25T13:14:53.477Z,1016.89
2016-12-25T13:16:04.459Z,1016.93
2016-12-25T13:17:15.440Z,1016.93
2016-12-25T13:18:26.427Z,1016.89
2016-12-25T13:19:37.411Z,1016.87
2016-12-25T13:20:48.604Z,1016.87
2016-12-25T13:21:59.596Z,1016.9
2016-12-25T13:23:10.581Z,1016.92
2016-12-25T13:24:21.564Z,1016.89
2016-12-25T13:25:32.547Z,1016.95
2016-12-25T13:26:43.546Z,1016.99
2016-12-25T13:27:54.532Z,1017
2016-12-25T13:29:05.723Z,1016.99
2016-12-25T13:30:16.752Z,1016.98
2016-12-25T13:31:27.738Z,1016.99
2016-12-25T13:32:38.731Z,1016.96
2016-12-25T13:33:49.921Z,1016.95
2016-12-25T13:35:01.113Z,1016.9
2016-12-25T13:36:12.091Z,1016.98
2016-12-25T13:37:23.073Z,1016.94
2016-12-25T13:38:34.257Z,1016.95
2016-12-25T13:39:45.246Z,1016.88
2016-12-25T13:40:56.244Z,1016.9
2016-12-25T13:42:07.232Z,1016.84
2016-12-25T13:43:18.422Z,1016.88
2016-12-25T13:44:29.612Z,1016.86
2016-12-25T13:45:40.607Z,1016.87
2016-12-25T13:46:51.591Z,1016.85
2016-12-25T13:48:02.603Z,1016.82
2016-12-25T13:49:13.592Z,1016.83
2016-12-25T13:50:24.579Z,1016.81
2016-12-25T13:51:35.558Z,1016.84
2016-12-25T13:52:46.547Z,1016.86
2016-12-25T13:53:57.543Z,1016.8
2016-12-25T13:55:08.521Z,1016.88
2016-12-25T13:56:19.506Z,1016.89
2016-12-25T13:57:30.489Z,1016.88
2016-12-25T13:58:41.473Z,1016.92
2016-12-25T13:59:52.456Z,1016.92
2016-12-25T14:01:03.441Z,1016.95
2016-12-25T14:02:14.625Z,1016.9
2016-12-25T14:03:25.818Z,1016.95
2016-12-25T14:04:36.810Z,1017.06
2016-12-25T14:05:47.844Z,1016.98
2016-12-25T14:06:58.840Z,1017.03
2016-12-25T14:08:09.828Z,1017.02
2016-12-25T14:09:20.819Z,1017.02
2016-12-25T14:10:32.066Z,1017.07
2016-12-25T14:11:43.059Z,1017.05
2016-12-25T14:12:54.041Z,1017
2016-12-25T14:14:05.226Z,1017.05
2016-12-25T14:15:16.258Z,1016.99
2016-12-25T14:16:27.242Z,1017.08
2016-12-25T14:17:38.224Z,1017.01
2016-12-25T14:18:49.232Z,1017.07
2016-12-25T14:20:00.423Z,1017.1
2016-12-25T14:21:11.485Z,1017.14
2016-12-25T14:22:22.478Z,1017.14